Time;durP1;ratioP1;P1;durP2;ratioP2;P2;SDS_P1;SDS_P2;PMS_P1;PMS_P2;Temp;Humidity;BMP_temperature;BMP_pressure;BME280_temperature;BME280_humidity;BME280_pressure;Samples;Min_cycle;Max_cycle;Signal;HPM_P1;HPM_P2
2023/10/24 00:00:07;;;;;;;;;;;;;;;7.63;100.00;100378.38;4989249;28;19922;-86
2023/10/24 00:02:40;;;;;;;;;;;;;;;7.78;100.00;100366.75;4992052;28;20398;-87
2023/10/24 00:05:08;;;;;;;;;;;;;;;7.59;100.00;100358.31;4991268;28;19932;-82
2023/10/24 00:07:36;;;;;;;;;;;;;;;7.72;100.00;100353.47;4995493;28;19932;-85
2023/10/24 00:10:09;;;;;;;;;;;;;;;7.81;100.00;100351.88;4987899;28;19921;-84
2023/10/24 00:12:38;;;;;;;;;;;;;;;7.72;100.00;100337.22;4989441;28;19921;-83
2023/10/24 00:15:12;;;;;;;;;;;;;;;7.65;100.00;100318.53;4976103;28;19932;-84
2023/10/24 00:17:40;;;;;;;;;;;;;;;7.63;100.00;100323.41;4988368;28;19928;-84
2023/10/24 00:20:13;;;;;;;;;;;;;;;7.58;100.00;100313.38;4976905;28;19922;-86
2023/10/24 00:22:41;;;;;;;;;;;;;;;7.65;100.00;100310.41;4995075;28;19922;-84
2023/10/24 00:25:09;;;;;;;;;;;;;;;7.61;100.00;100320.13;4992756;28;20412;-84
2023/10/24 00:27:37;;;;;;;;;;;;;;;7.73;100.00;100328.81;4995108;28;19933;-86
2023/10/24 00:30:11;;;;;;;;;;;;;;;7.75;100.00;100323.97;4997023;28;19922;-85
2023/10/24 00:32:40;;;;;;;;;;;;;;;7.70;100.00;100323.94;4991130;28;19922;-83
2023/10/24 00:35:08;;;;;;;;;;;;;;;7.71;100.00;100327.50;4996052;28;20386;-83
2023/10/24 00:37:41;;;;;;;;;;;;;;;7.78;100.00;100312.59;4993171;28;19926;-85
2023/10/24 00:40:14;;;;;;;;;;;;;;;7.88;100.00;100313.69;4994993;28;19922;-85
2023/10/24 00:42:42;;;;;;;;;;;;;;;7.75;100.00;100313.13;4987174;28;19929;-84
2023/10/24 00:45:10;;;;;;;;;;;;;;;7.88;100.00;100310.97;5005894;28;20305;-83
2023/10/24 00:47:40;;;;;;;;;;;;;;;7.81;100.00;100303.09;4973728;28;20872;-85
2023/10/24 00:50:08;;;;;;;;;;;;;;;7.79;100.00;100306.09;4982241;28;19921;-83
2023/10/24 00:52:37;;;;;;;;;;;;;;;7.81;100.00;100311.22;4992807;28;19937;-83
2023/10/24 00:55:07;;;;;;;;;;;;;;;7.77;100.00;100312.84;4997748;28;19922;-83
2023/10/24 00:57:40;;;;;;;;;;;;;;;7.82;100.00;100310.16;4993461;28;19921;-86
2023/10/24 01:00:09;;;;;;;;;;;;;;;7.83;100.00;100312.59;4976935;28;19932;-86
2023/10/24 01:02:44;;;;;;;;;;;;;;;7.89;100.00;100294.44;4991836;28;19922;-84
2023/10/24 01:05:13;;;;;;;;;;;;;;;7.91;100.00;100288.75;5006877;28;19929;-86
2023/10/24 01:07:41;;;;;;;;;;;;;;;7.86;100.00;100267.06;4994110;28;19921;-85
2023/10/24 01:10:14;;;;;;;;;;;;;;;7.79;100.00;100262.75;4977937;28;19921;-84
2023/10/24 01:12:42;;;;;;;;;;;;;;;7.81;100.00;100273.31;4993137;28;19921;-83
2023/10/24 01:15:10;;;;;;;;;;;;;;;7.88;100.00;100263.00;4989887;28;20445;-86
2023/10/24 01:17:49;;;;;;;;;;;;;;;8.07;100.00;100259.75;4989111;28;19929;-85
2023/10/24 01:20:22;;;;;;;;;;;;;;;8.16;100.00;100255.38;4962560;28;19929;-84
2023/10/24 01:22:51;;;;;;;;;;;;;;;8.07;100.00;100255.13;4987514;28;19932;-85
2023/10/24 01:25:25;;;;;;;;;;;;;;;8.18;100.00;100245.88;4972988;28;19933;-85
2023/10/24 01:27:54;;;;;;;;;;;;;;;8.32;100.00;100239.91;4990206;28;19929;-86
2023/10/24 01:30:22;;;;;;;;;;;;;;;8.31;100.00;100249.13;4989813;28;19921;-84
2023/10/24 01:32:50;;;;;;;;;;;;;;;8.27;100.00;100245.31;4992210;28;20286;-85
2023/10/24 01:35:23;;;;;;;;;;;;;;;8.31;100.00;100247.22;4991987;28;20596;-83
2023/10/24 01:37:59;;;;;;;;;;;;;;;8.41;100.00;100245.56;4963893;28;19925;-85
2023/10/24 01:40:32;;;;;;;;;;;;;;;8.29;100.00;100251.31;5003259;28;19928;-82
2023/10/24 01:43:00;;;;;;;;;;;;;;;8.39;100.00;100251.25;4990961;28;19925;-83
2023/10/24 01:45:34;;;;;;;;;;;;;;;8.30;100.00;100253.75;5002497;28;20374;-87
2023/10/24 01:48:02;;;;;;;;;;;;;;;8.29;100.00;100243.97;4993623;28;19929;-87
2023/10/24 01:50:30;;;;;;;;;;;;;;;8.26;100.00;100244.53;4978776;28;20621;-87
2023/10/24 01:53:00;;;;;;;;;;;;;;;8.24;100.00;100235.84;4992197;28;19922;-84
2023/10/24 01:55:33;;;;;;;;;;;;;;;8.30;100.00;100237.47;4992141;28;19925;-83
2023/10/24 01:58:01;;;;;;;;;;;;;;;8.30;100.00;100234.75;4987592;28;20305;-82
2023/10/24 02:00:28;;;;;;;;;;;;;;;8.33;100.00;100234.19;4988027;28;19922;-85
2023/10/24 02:02:56;;;;;;;;;;;;;;;8.33;100.00;100227.97;4975093;28;19948;-85
2023/10/24 02:05:29;;;;;;;;;;;;;;;8.46;100.00;100224.69;4994198;28;19922;-86
2023/10/24 02:08:04;;;;;;;;;;;;;;;8.40;100.00;100219.56;4976328;28;19921;-83
2023/10/24 02:10:32;;;;;;;;;;;;;;;8.55;100.00;100215.97;4991892;28;19929;-86
2023/10/24 02:13:00;;;;;;;;;;;;;;;8.47;100.00;100203.81;4991384;28;20611;-84
2023/10/24 02:15:28;;;;;;;;;;;;;;;8.56;100.00;100213.03;4970289;28;19925;-85
2023/10/24 02:18:01;;;;;;;;;;;;;;;8.55;100.00;100197.81;4982673;28;19929;-84
2023/10/24 02:20:28;;;;;;;;;;;;;;;8.50;100.00;100195.13;4991176;28;19945;-85
2023/10/24 02:22:56;;;;;;;;;;;;;;;8.47;100.00;100192.97;4980619;28;19921;-84
2023/10/24 02:25:26;;;;;;;;;;;;;;;8.59;100.00;100179.91;4969637;28;19922;-84
2023/10/24 02:27:54;;;;;;;;;;;;;;;8.52;100.00;100176.69;4990670;28;20379;-84
2023/10/24 02:30:22;;;;;;;;;;;;;;;8.54;100.00;100162.84;4982385;28;19921;-83
2023/10/24 02:33:00;;;;;;;;;;;;;;;8.67;100.00;100164.94;4991271;28;19922;-84
2023/10/24 02:35:33;;;;;;;;;;;;;;;8.59;100.00;100162.81;4989695;28;19929;-84
2023/10/24 02:38:07;;;;;;;;;;;;;;;8.64;100.00;100162.78;4992621;28;19921;-86
2023/10/24 02:40:43;;;;;;;;;;;;;;;8.77;100.00;100151.31;4967924;28;19921;-84
2023/10/24 02:43:11;;;;;;;;;;;;;;;8.65;100.00;100157.06;4991547;28;19921;-84
2023/10/24 02:45:46;;;;;;;;;;;;;;;8.63;100.00;100142.16;4992144;28;19922;-86
2023/10/24 02:48:20;;;;;;;;;;;;;;;8.65;100.00;100132.66;4993153;28;20378;-85
2023/10/24 02:50:51;;;;;;;;;;;;;;;8.70;100.00;100134.56;4989907;28;19933;-89
2023/10/24 02:53:19;;;;;;;;;;;;;;;8.70;100.00;100131.00;4993641;28;19921;-86
2023/10/24 02:55:49;;;;;;;;;;;;;;;8.71;100.00;100122.59;4990047;28;19936;-84
2023/10/24 02:58:22;;;;;;;;;;;;;;;8.74;100.00;100121.22;4966375;28;19929;-88
2023/10/24 03:00:50;;;;;;;;;;;;;;;8.72;100.00;100116.06;4988680;28;19932;-85
2023/10/24 03:03:18;;;;;;;;;;;;;;;8.71;100.00;100114.44;4987017;28;20389;-85
2023/10/24 03:05:51;;;;;;;;;;;;;;;8.86;100.00;100108.13;4991668;28;19926;-86
2023/10/24 03:08:19;;;;;;;;;;;;;;;8.84;100.00;100110.31;4991246;28;20299;-88
2023/10/24 03:10:47;;;;;;;;;;;;;;;8.73;100.00;100112.28;4991261;28;19929;-86
2023/10/24 03:13:16;;;;;;;;;;;;;;;8.74;100.00;100111.19;4999276;28;20397;-87
2023/10/24 03:15:44;;;;;;;;;;;;;;;8.75;100.00;100109.28;4978557;28;19945;-83
2023/10/24 03:18:12;;;;;;;;;;;;;;;8.84;100.00;100110.31;4991491;28;19929;-86
2023/10/24 03:20:41;;;;;;;;;;;;;;;8.82;100.00;100097.03;4988538;28;19929;-87
2023/10/24 03:23:09;;;;;;;;;;;;;;;8.75;100.00;100091.09;4991034;28;19933;-89
2023/10/24 03:25:41;;;;;;;;;;;;;;;8.68;100.00;100090.59;4990606;28;19995;-85
2023/10/24 03:28:11;;;;;;;;;;;;;;;8.87;100.00;100079.91;4991283;28;19929;-83
2023/10/24 03:30:48;;;;;;;;;;;;;;;8.82;100.00;100069.06;4999972;28;20298;-84
2023/10/24 03:33:16;;;;;;;;;;;;;;;8.85;100.00;100061.19;5003806;28;19952;-84
2023/10/24 03:35:43;;;;;;;;;;;;;;;8.76;100.00;100048.50;4994527;28;19922;-86
2023/10/24 03:38:16;;;;;;;;;;;;;;;8.77;100.00;100048.22;4998971;28;19928;-83
2023/10/24 03:40:49;;;;;;;;;;;;;;;8.70;100.00;100036.91;4996270;28;19925;-84
2023/10/24 03:43:17;;;;;;;;;;;;;;;8.77;100.00;100044.69;4994100;28;19921;-83
2023/10/24 03:45:46;;;;;;;;;;;;;;;8.75;100.00;100042.25;4998723;28;19925;-83
2023/10/24 03:48:15;;;;;;;;;;;;;;;8.75;100.00;100042.25;4995497;28;19929;-83
2023/10/24 03:50:48;;;;;;;;;;;;;;;8.67;100.00;100045.56;4977012;28;19929;-85
2023/10/24 03:53:16;;;;;;;;;;;;;;;8.69;100.00;100043.41;4993587;28;20326;-84
2023/10/24 03:55:44;;;;;;;;;;;;;;;8.70;100.00;100044.22;4995802;28;19937;-87
2023/10/24 03:58:12;;;;;;;;;;;;;;;8.61;100.00;100035.88;4998768;28;19929;-85
2023/10/24 04:00:40;;;;;;;;;;;;;;;8.66;100.00;100035.84;4999138;28;19921;-86
2023/10/24 04:03:14;;;;;;;;;;;;;;;8.72;100.00;100042.03;4993903;28;19929;-88
2023/10/24 04:05:42;;;;;;;;;;;;;;;8.70;100.00;100042.31;4990083;28;19928;-85
2023/10/24 04:08:10;;;;;;;;;;;;;;;8.64;100.00;100038.00;4977477;28;19921;-85
2023/10/24 04:10:43;;;;;;;;;;;;;;;8.63;100.00;100034.50;4997915;28;19926;-87
2023/10/24 04:13:11;;;;;;;;;;;;;;;8.63;100.00;100028.25;4993410;28;20488;-85
2023/10/24 04:15:39;;;;;;;;;;;;;;;8.64;100.00;100032.59;4994631;28;19925;-87
2023/10/24 04:18:07;;;;;;;;;;;;;;;8.70;100.00;100031.47;4993764;28;19922;-87
2023/10/24 04:20:40;;;;;;;;;;;;;;;8.68;100.00;100025.50;4990201;28;20841;-84
2023/10/24 04:23:13;;;;;;;;;;;;;;;8.65;100.00;100015.22;4992857;28;20382;-84
2023/10/24 04:25:46;;;;;;;;;;;;;;;8.68;100.00;100011.94;4987804;28;20596;-85
2023/10/24 04:28:19;;;;;;;;;;;;;;;8.72;100.00;100006.78;4989539;28;20271;-85
2023/10/24 04:30:52;;;;;;;;;;;;;;;8.68;100.00;99999.16;4994664;28;19944;-86
2023/10/24 04:33:20;;;;;;;;;;;;;;;8.70;100.00;99992.66;4989718;28;19929;-86
2023/10/24 04:35:51;;;;;;;;;;;;;;;8.82;100.00;99991.22;4993891;28;19921;-85
2023/10/24 04:38:24;;;;;;;;;;;;;;;8.81;100.00;99992.31;4994828;28;19922;-85
2023/10/24 04:40:52;;;;;;;;;;;;;;;8.89;100.00;99985.44;4988986;28;19928;-85
2023/10/24 04:43:20;;;;;;;;;;;;;;;8.91;100.00;99982.44;4992986;28;19929;-85
2023/10/24 04:45:51;;;;;;;;;;;;;;;8.95;100.00;99975.34;4988635;28;19922;-89
2023/10/24 04:48:24;;;;;;;;;;;;;;;8.94;100.00;99966.41;4993851;28;19922;-87
2023/10/24 04:50:54;;;;;;;;;;;;;;;8.82;100.00;99968.69;4993149;28;19922;-86
2023/10/24 04:53:22;;;;;;;;;;;;;;;8.78;100.00;99964.91;4992480;28;19921;-86
2023/10/24 04:55:50;;;;;;;;;;;;;;;8.79;100.00;99961.13;4971931;28;19926;-84
2023/10/24 04:58:18;;;;;;;;;;;;;;;8.77;100.00;99972.25;4987841;28;19922;-86
2023/10/24 05:00:46;;;;;;;;;;;;;;;8.73;100.00;99970.38;4992705;28;19933;-86
2023/10/24 05:03:14;;;;;;;;;;;;;;;8.72;100.00;99966.06;4991344;28;19921;-87
2023/10/24 05:05:42;;;;;;;;;;;;;;;8.73;100.00;99964.97;4989340;28;19922;-88
2023/10/24 05:08:16;;;;;;;;;;;;;;;8.87;100.00;99965.94;4992338;28;19928;-86
2023/10/24 05:10:50;;;;;;;;;;;;;;;8.82;100.00;99957.84;4993629;28;20555;-84
2023/10/24 05:13:18;;;;;;;;;;;;;;;8.84;100.00;99961.88;4993106;28;19932;-84
2023/10/24 05:15:46;;;;;;;;;;;;;;;8.81;100.00;99969.78;4997569;28;19926;-86
2023/10/24 05:18:19;;;;;;;;;;;;;;;8.93;100.00;99955.84;4996838;28;19926;-86
2023/10/24 05:20:47;;;;;;;;;;;;;;;8.89;100.00;99941.22;5003653;28;19929;-85
2023/10/24 05:23:17;;;;;;;;;;;;;;;8.99;100.00;99954.66;4968887;28;19945;-86
2023/10/24 05:25:45;;;;;;;;;;;;;;;8.90;100.00;99948.28;4992208;28;19921;-85
2023/10/24 05:28:18;;;;;;;;;;;;;;;8.92;100.00;99937.94;4989651;28;19926;-82
2023/10/24 05:30:51;;;;;;;;;;;;;;;8.86;100.00;99934.47;4993763;28;19932;-86
2023/10/24 05:33:23;;;;;;;;;;;;;;;8.93;100.00;99929.50;4991789;28;19922;-87
2023/10/24 05:35:56;;;;;;;;;;;;;;;8.87;100.00;99927.94;4988121;28;20606;-85
2023/10/24 05:38:26;;;;;;;;;;;;;;;9.01;100.00;99937.00;4988991;28;19926;-83
2023/10/24 05:40:54;;;;;;;;;;;;;;;8.92;100.00;99927.91;4993201;28;19922;-79
2023/10/24 05:43:22;;;;;;;;;;;;;;;8.82;100.00;99933.41;4989314;28;19921;-84
2023/10/24 05:45:50;;;;;;;;;;;;;;;8.82;100.00;99931.53;4990797;28;19929;-82
2023/10/24 05:48:18;;;;;;;;;;;;;;;8.88;100.00;99921.44;4994270;28;19925;-81
2023/10/24 05:50:51;;;;;;;;;;;;;;;8.91;100.00;99925.44;4992308;28;19926;-82
2023/10/24 05:53:18;;;;;;;;;;;;;;;8.93;100.00;99912.41;4977620;28;19944;-81
2023/10/24 05:55:48;;;;;;;;;;;;;;;8.93;100.00;99917.84;5003204;28;19921;-81
2023/10/24 05:58:22;;;;;;;;;;;;;;;8.97;100.00;99916.16;4989972;28;19933;-82
2023/10/24 06:00:51;;;;;;;;;;;;;;;8.84;100.00;99920.38;4993530;28;19925;-81
2023/10/24 06:03:19;;;;;;;;;;;;;;;8.83;100.00;99924.19;4987436;28;19937;-81
2023/10/24 06:05:49;;;;;;;;;;;;;;;8.79;100.00;99917.72;4996489;28;19925;-84
2023/10/24 06:08:17;;;;;;;;;;;;;;;8.77;100.00;99923.44;4972126;28;20375;-84
2023/10/24 06:10:58;;;;;;;;;;;;;;;8.84;100.00;99923.09;4993339;28;19932;-81
2023/10/24 06:13:25;;;;;;;;;;;;;;;8.89;100.00;99909.47;4991176;28;19929;-81
2023/10/24 06:15:53;;;;;;;;;;;;;;;8.89;100.00;99909.47;4992603;28;19925;-83
2023/10/24 06:18:21;;;;;;;;;;;;;;;8.91;100.00;99912.72;4993079;28;19926;-81
2023/10/24 06:20:54;;;;;;;;;;;;;;;8.95;100.00;99905.59;4993224;28;19921;-83
2023/10/24 06:23:24;;;;;;;;;;;;;;;8.88;100.00;99910.56;4992349;28;19921;-81
2023/10/24 06:25:58;;;;;;;;;;;;;;;8.86;100.00;99907.31;4991325;28;19921;-84
2023/10/24 06:28:31;;;;;;;;;;;;;;;8.83;100.00;99907.91;4993026;28;19930;-83
2023/10/24 06:31:04;;;;;;;;;;;;;;;8.96;100.00;99893.66;4990507;28;19926;-79
2023/10/24 06:33:40;;;;;;;;;;;;;;;8.87;100.00;99894.59;4988646;28;19929;-82
2023/10/24 06:36:13;;;;;;;;;;;;;;;8.92;100.00;99891.78;4991375;28;19926;-84
2023/10/24 06:38:41;;;;;;;;;;;;;;;8.90;100.00;99891.28;4992059;28;19930;-82
2023/10/24 06:41:11;;;;;;;;;;;;;;;8.90;100.00;99896.72;4990417;28;19921;-83
2023/10/24 06:43:39;;;;;;;;;;;;;;;8.94;100.00;99890.41;4989566;28;19922;-81
2023/10/24 06:46:12;;;;;;;;;;;;;;;8.88;100.00;99898.91;4984902;28;19937;-83
2023/10/24 06:48:40;;;;;;;;;;;;;;;8.86;100.00;99899.19;4991131;28;19921;-82
2023/10/24 06:51:13;;;;;;;;;;;;;;;8.95;100.00;99893.94;4993518;28;19926;-82
2023/10/24 06:53:46;;;;;;;;;;;;;;;8.90;100.00;99902.16;4997116;28;19921;-84
2023/10/24 06:56:21;;;;;;;;;;;;;;;8.88;100.00;99896.19;4992165;28;20552;-83
2023/10/24 06:58:48;;;;;;;;;;;;;;;8.90;100.00;99896.72;4987404;28;19929;-82
2023/10/24 07:01:16;;;;;;;;;;;;;;;8.90;100.00;99875.81;4993903;28;19925;-81
2023/10/24 07:03:49;;;;;;;;;;;;;;;8.90;100.00;99867.66;4977025;28;19929;-81
2023/10/24 07:06:17;;;;;;;;;;;;;;;8.94;100.00;99865.19;4995698;28;19944;-82
2023/10/24 07:08:46;;;;;;;;;;;;;;;8.93;100.00;99871.72;4972370;28;19928;-81
2023/10/24 07:11:14;;;;;;;;;;;;;;;8.93;100.00;99872.50;4990852;28;19921;-82
2023/10/24 07:13:48;;;;;;;;;;;;;;;8.96;100.00;99876.56;4997402;28;19928;-83
2023/10/24 07:16:17;;;;;;;;;;;;;;;8.98;100.00;99867.03;4981490;28;20290;-84
2023/10/24 07:18:50;;;;;;;;;;;;;;;9.02;100.00;99868.06;4995881;28;20754;-81
2023/10/24 07:21:23;;;;;;;;;;;;;;;9.06;100.00;99864.78;4961049;28;20377;-86
2023/10/24 07:23:51;;;;;;;;;;;;;;;9.08;100.00;99866.09;4976946;28;19925;-83
2023/10/24 07:26:19;;;;;;;;;;;;;;;9.09;100.00;99856.88;4981724;28;19937;-82
2023/10/24 07:28:49;;;;;;;;;;;;;;;9.17;100.00;99841.84;4949571;28;19929;-84
2023/10/24 07:31:16;;;;;;;;;;;;;;;9.12;100.00;99850.06;4976088;28;19926;-84
2023/10/24 07:33:46;;;;;;;;;;;;;;;9.16;100.00;99861.94;4951553;28;19930;-82
2023/10/24 07:36:19;;;;;;;;;;;;;;;9.18;100.00;99857.84;4966519;28;19936;-83
2023/10/24 07:38:47;;;;;;;;;;;;;;;9.21;100.00;99863.78;4954139;28;19936;-83
2023/10/24 07:41:20;;;;;;;;;;;;;;;9.19;100.00;99862.16;4965783;28;19937;-81
2023/10/24 07:43:55;;;;;;;;;;;;;;;9.21;100.00;99875.47;4965659;28;19941;-86
2023/10/24 07:46:23;;;;;;;;;;;;;;;9.21;100.00;99875.47;4966869;28;19988;-87
2023/10/24 07:48:57;;;;;;;;;;;;;;;9.24;100.00;99858.59;4974007;28;19941;-85
2023/10/24 07:51:31;;;;;;;;;;;;;;;9.17;100.00;99864.38;4978411;28;19930;-84
2023/10/24 07:53:59;;;;;;;;;;;;;;;9.18;100.00;99878.75;4973146;28;19929;-84
2023/10/24 07:56:27;;;;;;;;;;;;;;;9.18;100.00;99874.13;4972617;28;19929;-83
2023/10/24 07:58:56;;;;;;;;;;;;;;;9.18;100.00;99874.13;4969845;28;19937;-82
2023/10/24 08:01:29;;;;;;;;;;;;;;;9.21;100.00;99872.75;4967927;28;19930;-86
2023/10/24 08:03:58;;;;;;;;;;;;;;;9.25;100.00;99870.25;4971681;28;19929;-84
2023/10/24 08:06:26;;;;;;;;;;;;;;;9.26;100.00;99869.94;4966368;28;19930;-86
2023/10/24 08:08:53;;;;;;;;;;;;;;;9.28;100.00;99870.47;4966651;28;19936;-82
2023/10/24 08:11:21;;;;;;;;;;;;;;;9.32;100.00;99870.69;4971121;28;20363;-87
2023/10/24 08:13:49;;;;;;;;;;;;;;;9.33;100.00;99864.16;4967230;28;19930;-84
2023/10/24 08:16:20;;;;;;;;;;;;;;;9.36;100.00;99858.16;4964826;28;20491;-84
2023/10/24 08:18:48;;;;;;;;;;;;;;;9.38;100.00;99855.13;4966988;28;20400;-84
2023/10/24 08:21:21;;;;;;;;;;;;;;;9.44;100.00;99857.50;4969704;28;20385;-84
2023/10/24 08:23:49;;;;;;;;;;;;;;;9.45;100.00;99856.41;4960551;28;19930;-83
2023/10/24 08:26:17;;;;;;;;;;;;;;;9.49;100.00;99862.88;4965841;28;19930;-85
2023/10/24 08:28:45;;;;;;;;;;;;;;;9.50;100.00;99855.53;4965382;28;19930;-85
2023/10/24 08:31:13;;;;;;;;;;;;;;;9.53;100.00;99854.97;4969840;28;19929;-85
2023/10/24 08:33:42;;;;;;;;;;;;;;;9.55;100.00;99851.94;4971946;28;19922;-85
2023/10/24 08:36:15;;;;;;;;;;;;;;;9.50;100.00;99860.94;4968728;28;19937;-88
2023/10/24 08:38:43;;;;;;;;;;;;;;;9.52;100.00;99845.19;4971057;28;20362;-86
2023/10/24 08:41:16;;;;;;;;;;;;;;;9.51;100.00;99855.25;4956136;28;19930;-85
2023/10/24 08:43:49;;;;;;;;;;;;;;;9.51;100.00;99851.72;4968008;28;19930;-83
2023/10/24 08:46:23;;;;;;;;;;;;;;;9.49;100.00;99845.78;4968653;28;19949;-84
2023/10/24 08:48:59;;;;;;;;;;;;;;;9.57;100.00;99836.16;4968404;28;20397;-84
2023/10/24 08:51:27;;;;;;;;;;;;;;;9.53;100.00;99841.38;4963871;28;19933;-82
2023/10/24 08:53:55;;;;;;;;;;;;;;;9.48;100.00;99842.25;4963538;28;19930;-85
2023/10/24 08:56:29;;;;;;;;;;;;;;;9.49;100.00;99838.44;4969041;28;19926;-84
2023/10/24 08:59:03;;;;;;;;;;;;;;;9.51;100.00;99833.53;4971722;28;19929;-85
2023/10/24 09:01:31;;;;;;;;;;;;;;;9.56;100.00;99837.28;4971775;28;19963;-82
2023/10/24 09:04:01;;;;;;;;;;;;;;;9.58;100.00;99833.13;4967871;28;19929;-83
2023/10/24 09:06:35;;;;;;;;;;;;;;;9.62;100.00;99831.44;4965600;28;20287;-86
2023/10/24 09:09:03;;;;;;;;;;;;;;;9.62;100.00;99826.00;4975757;28;19929;-85
2023/10/24 09:11:45;;;;;;;;;;;;;;;9.64;100.00;99823.00;4966870;28;20618;-82
2023/10/24 09:14:13;;;;;;;;;;;;;;;9.66;100.00;99805.31;4954768;28;20297;-86
2023/10/24 09:16:41;;;;;;;;;;;;;;;9.68;100.00;99811.25;4967608;28;19930;-84
2023/10/24 09:19:16;;;;;;;;;;;;;;;9.70;100.00;99810.97;4969569;28;19929;-86
2023/10/24 09:21:44;;;;;;;;;;;;;;;9.73;100.00;99804.94;4960206;28;19929;-81
2023/10/24 09:24:27;;;;;;;;;;;;;;;9.74;100.00;99798.41;4957340;28;20702;-85
2023/10/24 09:27:01;;;;;;;;;;;;;;;9.74;100.00;99803.84;4965466;28;19930;-85
2023/10/24 09:29:34;;;;;;;;;;;;;;;9.74;100.00;99797.59;4971550;28;19930;-84
2023/10/24 09:32:07;;;;;;;;;;;;;;;9.78;100.00;99793.19;4954350;28;20591;-84
2023/10/24 09:34:42;;;;;;;;;;;;;;;9.85;100.00;99788.19;4954077;28;19929;-83
2023/10/24 09:37:13;;;;;;;;;;;;;;;9.86;100.00;99787.88;4967356;28;19941;-86
2023/10/24 09:39:56;;;;;;;;;;;;;;;9.86;100.00;99790.59;4949848;28;20309;-83
2023/10/24 09:42:30;;;;;;;;;;;;;;;9.87;100.00;99799.56;4964640;28;20460;-87
2023/10/24 09:45:00;;;;;;;;;;;;;;;9.83;100.00;99787.66;4968854;28;19929;-86
2023/10/24 09:47:28;;;;;;;;;;;;;;;9.84;100.00;99786.56;4952440;28;19930;-87
2023/10/24 09:49:58;;;;;;;;;;;;;;;9.86;100.00;99789.81;4964277;28;19953;-84
2023/10/24 09:52:27;;;;;;;;;;;;;;;9.88;100.00;99791.09;4970266;28;19925;-83
2023/10/24 09:55:00;;;;;;;;;;;;;;;9.86;100.00;99792.53;4952781;28;21285;-86
2023/10/24 09:57:28;;;;;;;;;;;;;;;9.86;100.00;99797.97;4965452;28;20302;-87
2023/10/24 09:59:58;;;;;;;;;;;;;;;9.82;100.00;99805.09;4952608;28;20338;-83
2023/10/24 10:02:40;;;;;;;;;;;;;;;9.82;100.00;99802.38;4965960;28;20371;-85
2023/10/24 10:05:09;;;;;;;;;;;;;;;9.82;100.00;99795.00;4977268;28;19937;-84
2023/10/24 10:07:39;;;;;;;;;;;;;;;9.86;100.00;99793.31;4956449;28;20019;-84
2023/10/24 10:10:12;;;;;;;;;;;;;;;9.88;100.00;99799.25;4955648;28;20722;-84
2023/10/24 10:12:41;;;;;;;;;;;;;;;9.90;100.00;99792.72;4964100;28;20425;-83
2023/10/24 10:15:21;;;;;;;;;;;;;;;9.94;100.00;99794.53;4963944;28;19930;-84
2023/10/24 10:17:59;;;;;;;;;;;;;;;9.95;100.00;99792.66;4970064;28;19930;-87
2023/10/24 10:20:43;;;;;;;;;;;;;;;9.97;100.00;99799.41;4965999;28;19930;-87
2023/10/24 10:23:34;;;;;;;;;;;;;;;10.00;100.00;99800.72;4954119;28;19930;-86
2023/10/24 10:26:06;;;;;;;;;;;;;;;10.00;100.00;99795.28;4959767;28;19930;-88
2023/10/24 10:28:41;;;;;;;;;;;;;;;10.03;100.00;99789.25;4972556;28;19937;-87
2023/10/24 10:31:21;;;;;;;;;;;;;;;10.05;100.00;99789.75;4967873;28;19937;-85
2023/10/24 10:33:50;;;;;;;;;;;;;;;10.10;100.00;99783.44;4970138;28;19930;-88
2023/10/24 10:36:19;;;;;;;;;;;;;;;10.10;100.00;99786.94;4969428;28;19929;-85
2023/10/24 10:38:48;;;;;;;;;;;;;;;10.13;100.00;99799.94;4963345;28;19930;-85
2023/10/24 10:41:38;;;;;;;;;;;;;;;10.15;100.00;99788.75;4963120;28;19930;-86
2023/10/24 10:44:20;;;;;;;;;;;;;;;10.21;100.00;99790.28;4970015;28;19934;-87
2023/10/24 10:46:58;;;;;;;;;;;;;;;10.26;100.00;99787.50;4967948;28;19936;-86
2023/10/24 10:49:39;;;;;;;;;;;;;;;10.31;100.00;99783.84;4976758;28;19929;-84
2023/10/24 10:52:17;;;;;;;;;;;;;;;10.34;100.00;99772.38;4963265;28;19945;-86
2023/10/24 10:54:48;;;;;;;;;;;;;;;10.38;100.00;99774.25;4965641;28;19929;-85
2023/10/24 10:57:26;;;;;;;;;;;;;;;10.41;100.00;99772.81;4970896;28;19929;-86
2023/10/24 11:00:04;;;;;;;;;;;;;;;10.47;100.00;99773.53;4970383;28;19929;-87
2023/10/24 11:02:43;;;;;;;;;;;;;;;10.51;100.00;99769.13;4972905;28;20018;-88
2023/10/24 11:05:37;;;;;;;;;;;;;;;10.54;100.00;99768.50;4952461;28;20310;-86
2023/10/24 11:08:07;;;;;;;;;;;;;;;10.49;100.00;99768.59;4965381;28;19936;-86
2023/10/24 11:10:55;;;;;;;;;;;;;;;10.52;100.00;99762.53;4966702;28;21245;-86
2023/10/24 11:13:32;;;;;;;;;;;;;;;10.59;100.00;99765.66;4956061;28;19929;-88
2023/10/24 11:16:06;;;;;;;;;;;;;;;10.64;100.00;99759.34;4966843;28;19930;-85
2023/10/24 11:18:35;;;;;;;;;;;;;;;10.62;100.00;99756.91;4966237;28;19930;-87
2023/10/24 11:21:04;;;;;;;;;;;;;;;10.65;100.00;99758.22;4968256;28;19937;-85
2023/10/24 11:23:41;;;;;;;;;;;;;;;10.67;100.00;99745.91;4930607;28;19922;-86
2023/10/24 11:26:10;;;;;;;;;;;;;;;10.67;100.00;99748.63;4962624;28;19930;-86
2023/10/24 11:28:38;;;;;;;;;;;;;;;10.75;100.00;99732.72;4968016;28;19933;-87
2023/10/24 11:31:21;;;;;;;;;;;;;;;10.79;100.00;99739.16;4975725;28;19930;-88
2023/10/24 11:33:54;;;;;;;;;;;;;;;10.85;100.00;99735.22;4964281;28;19930;-85
2023/10/24 11:36:28;;;;;;;;;;;;;;;10.94;100.00;99724.41;4969838;28;19936;-86
2023/10/24 11:39:04;;;;;;;;;;;;;;;11.01;100.00;99724.81;4963886;28;19929;-85
2023/10/24 11:41:33;;;;;;;;;;;;;;;10.99;100.00;99727.03;4976549;28;19929;-88
2023/10/24 11:44:00;;;;;;;;;;;;;;;11.00;100.00;99734.88;4959356;28;19930;-87
2023/10/24 11:46:29;;;;;;;;;;;;;;;11.03;100.00;99734.28;4962211;28;19929;-87
2023/10/24 11:48:57;;;;;;;;;;;;;;;11.01;100.00;99738.44;4979216;28;19984;-85
2023/10/24 11:51:30;;;;;;;;;;;;;;;10.99;100.00;99730.56;4972800;28;19930;-86
2023/10/24 11:54:01;;;;;;;;;;;;;;;11.06;100.00;99736.41;4965252;28;19937;-87
2023/10/24 11:56:31;;;;;;;;;;;;;;;11.11;100.00;99724.56;4963099;28;19937;-88
2023/10/24 11:59:00;;;;;;;;;;;;;;;11.19;100.00;99723.84;4973959;28;19932;-88
2023/10/24 12:01:33;;;;;;;;;;;;;;;11.23;100.00;99732.22;4969230;28;19934;-86
2023/10/24 12:04:03;;;;;;;;;;;;;;;11.29;100.00;99741.88;4968882;28;19929;-87
2023/10/24 12:06:31;;;;;;;;;;;;;;;11.32;100.00;99743.97;4968026;28;19930;-89
2023/10/24 12:09:00;;;;;;;;;;;;;;;11.28;100.00;99742.97;4953147;28;19928;-86
2023/10/24 12:11:28;;;;;;;;;;;;;;;11.31;100.00;99749.72;4970108;28;19940;-88
2023/10/24 12:14:03;;;;;;;;;;;;;;;11.39;100.00;99738.09;4959453;28;19930;-87
2023/10/24 12:16:39;;;;;;;;;;;;;;;11.38;100.00;99739.25;4967184;28;19930;-87
2023/10/24 12:19:12;;;;;;;;;;;;;;;11.34;100.00;99738.25;4976189;28;19949;-87
2023/10/24 12:21:40;;;;;;;;;;;;;;;11.29;100.00;99728.25;4960730;28;19932;-88
2023/10/24 12:24:13;;;;;;;;;;;;;;;11.25;100.00;99721.00;4965293;28;19930;-89
2023/10/24 12:26:41;;;;;;;;;;;;;;;11.24;100.00;99722.91;4972877;28;20287;-89
2023/10/24 12:29:10;;;;;;;;;;;;;;;11.20;100.00;99722.75;4969934;28;19937;-87
2023/10/24 12:31:43;;;;;;;;;;;;;;;11.23;100.00;99721.31;4970109;28;19941;-87
2023/10/24 12:34:12;;;;;;;;;;;;;;;11.26;100.00;99703.56;4973642;28;19930;-87
2023/10/24 12:36:40;;;;;;;;;;;;;;;11.19;100.00;99704.78;4955186;28;19937;-86
2023/10/24 12:39:08;;;;;;;;;;;;;;;11.15;100.00;99705.72;4967824;28;20902;-89
2023/10/24 12:41:36;;;;;;;;;;;;;;;11.16;100.00;99702.69;4970632;28;19930;-88
2023/10/24 12:44:04;;;;;;;;;;;;;;;11.15;100.00;99697.53;4983738;28;19937;-89
2023/10/24 12:46:34;;;;;;;;;;;;;;;11.09;100.00;99693.31;4952243;28;19929;-87
2023/10/24 12:49:02;;;;;;;;;;;;;;;11.09;100.00;99694.13;4972125;28;19930;-90
2023/10/24 12:51:35;;;;;;;;;;;;;;;11.05;100.00;99687.69;4978779;28;19927;-90
2023/10/24 12:54:03;;;;;;;;;;;;;;;11.02;100.00;99700.00;4970738;28;19941;-91
2023/10/24 12:56:31;;;;;;;;;;;;;;;10.98;100.00;99693.56;4972746;28;19921;-90
2023/10/24 12:58:59;;;;;;;;;;;;;;;11.00;100.00;99693.25;4970812;28;21197;-89